Weather History for Nakika, MS

Change the Weather History Date:

Sunday, January 19, 2014

  Actual Average Record
Temperature  
Mean Temperature 66 °F -  
Max Temperature 71 °F - - ()
Min Temperature 60 °F - - ()
Growing Degree Days 16 (Base 50)    
Moisture  
Dew Point 51 °F    
Average Humidity 61    
Maximum Humidity 83    
Minimum Humidity 48    
Precipitation  
Precipitation 0.00 in - - ()
Sea Level Pressure  
Sea Level Pressure 30.17 in    
Wind  
Wind Speed 12 mph (WNW)    
Max Wind Speed 28 mph    
Max Gust Speed 43 mph    
Visibility 10 miles    
Events      
T = Trace of Precipitation, MM = Missing Value Source: NWS Daily Summary

Daily Weather History Graph

Daily Weather History Graph

Search for Another Location

Airport:

Trip Planner

Search our weather history database for the weather conditions in past years. The results will help you decide how hot, cold, wet, or windy it might be!

Date:

Astronomy

Jan. 19, 2014 Rise Set
Actual Time 6:46 AM CST 5:22 PM CST
Civil Twilight 6:20 AM CST 5:47 PM CST
Nautical Twilight 5:52 AM CST 6:16 PM CST
Astronomical Twilight 5:23 AM CST 6:44 PM CST
Moon 8:38 PM CST (1/19) 8:35 AM CST (1/19)
Length of Visible Light 11h 26m
Length of Day
10h 35m
Waning Gibbous, 89% of the Moon is Illuminated
Jan 19
Waning Gibbous
Jan 23
Last Quarter
Jan 30
New
Feb 6
First Quarter
Feb 14
Full

Hourly Weather History & Observations

Time (CST) Temp. Dew Point Humidity Pressure Visibility Wind Dir Wind Speed Gust Speed Precip Events Conditions
12:15 AM 62.6 °F 44.6 °F 52% 30.16 in 10.0 mi SW 16.1 mph 26.5 mph N/A   Mostly Cloudy
12:35 AM 62.6 °F 44.6 °F 52% 30.15 in 10.0 mi Variable 10.4 mph 24.2 mph N/A   Overcast
12:55 AM 62.6 °F 46.4 °F 55% 30.15 in 10.0 mi Variable 8.1 mph 27.6 mph N/A   Mostly Cloudy
1:15 AM 64.4 °F 46.4 °F 52% 30.15 in 10.0 mi SW 19.6 mph 31.1 mph N/A   Clear
1:35 AM 64.4 °F 46.4 °F 52% 30.15 in 10.0 mi Variable 11.5 mph 26.5 mph N/A   Scattered Clouds
1:55 AM 64.4 °F 48.2 °F 56% 30.14 in 10.0 mi Variable 18.4 mph 32.2 mph N/A   Scattered Clouds
2:15 AM 64.4 °F 48.2 °F 56% 30.14 in 10.0 mi Variable 11.5 mph 32.2 mph N/A   Partly Cloudy
2:35 AM 64.4 °F 50.0 °F 59% 30.13 in 10.0 mi Variable 15.0 mph 34.5 mph N/A   Partly Cloudy
2:55 AM 64.4 °F 50.0 °F 59% 30.14 in 10.0 mi Variable 10.4 mph 36.8 mph N/A   Scattered Clouds
3:15 AM 64.4 °F 51.8 °F 64% 30.14 in 10.0 mi SW 20.7 mph 34.5 mph N/A   Mostly Cloudy
3:35 AM 66.2 °F 51.8 °F 60% 30.13 in 10.0 mi Variable 18.4 mph 39.1 mph N/A   Mostly Cloudy
3:55 AM 66.2 °F 51.8 °F 60% 30.12 in 10.0 mi SW 19.6 mph 36.8 mph N/A   Mostly Cloudy
4:15 AM 66.2 °F 51.8 °F 60% 30.12 in 10.0 mi Variable 10.4 mph 32.2 mph N/A   Mostly Cloudy
4:35 AM 66.2 °F 53.6 °F 64% 30.13 in 10.0 mi SW 18.4 mph 34.5 mph N/A   Overcast
4:55 AM 66.2 °F 53.6 °F 64% 30.12 in 10.0 mi Variable 21.9 mph 38.0 mph N/A   Mostly Cloudy
5:15 AM 66.2 °F 55.4 °F 68% 30.12 in 10.0 mi Variable 21.9 mph 42.6 mph N/A   Mostly Cloudy
5:35 AM 66.2 °F 55.4 °F 68% 30.13 in 10.0 mi WSW 27.6 mph 39.1 mph N/A   Overcast
5:55 AM 64.4 °F 59.0 °F 83% 30.15 in 1.2 mi NW 12.7 mph 25.3 mph N/A   Haze
6:15 AM 62.6 °F 57.2 °F 82% 30.15 in 9.0 mi West 16.1 mph 29.9 mph N/A   Overcast
6:35 AM 66.2 °F 59.0 °F 78% 30.15 in 10.0 mi West 17.3 mph 29.9 mph N/A   Overcast
6:55 AM 68.0 °F 57.2 °F 68% 30.15 in 10.0 mi West 21.9 mph 32.2 mph N/A   Mostly Cloudy
7:15 AM 68.0 °F 57.2 °F 68% 30.15 in 10.0 mi West 15.0 mph 35.7 mph N/A   Mostly Cloudy
7:35 AM 68.0 °F 57.2 °F 68% 30.16 in 10.0 mi West 12.7 mph 24.2 mph N/A   Mostly Cloudy
7:55 AM 68.0 °F 57.2 °F 68% 30.17 in 10.0 mi WNW 12.7 mph 23.0 mph N/A   Mostly Cloudy
8:15 AM 69.8 °F 57.2 °F 64% 30.18 in 10.0 mi WNW 10.4 mph 19.6 mph N/A   Overcast
8:35 AM 69.8 °F 57.2 °F 64% 30.18 in 10.0 mi WNW 11.5 mph 24.2 mph N/A   Scattered Clouds
8:55 AM 66.2 °F 59.0 °F 78% 30.19 in 6.0 mi WNW 13.8 mph - N/A   Haze
9:15 AM 68.0 °F 57.2 °F 68% 30.21 in 10.0 mi NW 13.8 mph 24.2 mph N/A   Scattered Clouds
9:35 AM 69.8 °F 59.0 °F 68% 30.22 in 10.0 mi NW 15.0 mph 24.2 mph N/A   Clear
9:55 AM 71.6 °F 59.0 °F 64% 30.22 in 10.0 mi WNW 12.7 mph 24.2 mph N/A   Partly Cloudy
10:15 AM 71.6 °F 57.2 °F 60% 30.22 in 10.0 mi WNW 13.8 mph 23.0 mph N/A   Scattered Clouds
10:35 AM 68.0 °F 59.0 °F 73% 30.22 in 9.0 mi NW 18.4 mph 28.8 mph N/A   Mostly Cloudy
10:55 AM 68.0 °F 57.2 °F 68% 30.22 in 10.0 mi NW 20.7 mph 27.6 mph N/A   Scattered Clouds
11:15 AM 68.0 °F 57.2 °F 68% 30.21 in 10.0 mi WNW 12.7 mph 23.0 mph N/A   Partly Cloudy
11:35 AM 68.0 °F 55.4 °F 64% 30.21 in 10.0 mi Variable 6.9 mph 16.1 mph N/A   Clear
11:55 AM 68.0 °F 55.4 °F 64% 30.20 in 10.0 mi NW 8.1 mph 17.3 mph N/A   Clear
12:15 PM 66.2 °F 53.6 °F 64% 30.19 in 10.0 mi Variable 5.8 mph - N/A   Clear
12:35 PM 66.2 °F 53.6 °F 64% 30.19 in 10.0 mi Variable 4.6 mph 13.8 mph N/A   Clear
12:55 PM 66.2 °F 53.6 °F 64% 30.18 in 10.0 mi Variable 6.9 mph 15.0 mph N/A   Clear
1:15 PM 66.2 °F 51.8 °F 60% 30.17 in 10.0 mi Variable 4.6 mph 15.0 mph N/A   Clear
1:35 PM 64.4 °F 51.8 °F 64% 30.16 in 10.0 mi Variable 4.6 mph - N/A   Clear
1:55 PM 64.4 °F 51.8 °F 64% 30.16 in 10.0 mi Variable 5.8 mph - N/A   Clear
2:15 PM 64.4 °F 50.0 °F 59% 30.16 in 10.0 mi Variable 4.6 mph - N/A   Clear
2:35 PM 64.4 °F 50.0 °F 59% 30.16 in 10.0 mi WNW 5.8 mph - N/A   Clear
2:55 PM 64.4 °F 50.0 °F 59% 30.16 in 10.0 mi Calm Calm - N/A   Clear
3:15 PM 62.6 °F 50.0 °F 63% 30.16 in 10.0 mi Variable 3.5 mph - N/A   Clear
3:35 PM 62.6 °F 50.0 °F 63% 30.15 in 10.0 mi Variable 4.6 mph - N/A   Clear
3:55 PM 62.6 °F 48.2 °F 59% 30.15 in 10.0 mi Variable 4.6 mph - N/A   Clear
4:15 PM 62.6 °F 50.0 °F 63% 30.16 in 10.0 mi Calm Calm - N/A   Clear
4:35 PM 62.6 °F 50.0 °F 63% 30.15 in 10.0 mi Variable 3.5 mph - N/A   Clear
4:55 PM 62.6 °F 50.0 °F 63% 30.16 in 10.0 mi Variable 3.5 mph - N/A   Clear
5:15 PM 62.6 °F 50.0 °F 63% 30.16 in 10.0 mi Calm Calm - N/A   Clear
5:35 PM 62.6 °F 48.2 °F 59% 30.16 in 10.0 mi Variable 4.6 mph - N/A   Clear
5:55 PM 60.8 °F 48.2 °F 63% 30.16 in 10.0 mi Variable 4.6 mph - N/A   Clear
6:15 PM 60.8 °F 48.2 °F 63% 30.17 in 10.0 mi Calm Calm - N/A   Clear
6:35 PM 62.6 °F 48.2 °F 59% 30.17 in 10.0 mi Variable 5.8 mph - N/A   Clear
6:55 PM 60.8 °F 46.4 °F 59% 30.17 in 10.0 mi Variable 4.6 mph - N/A   Clear
7:15 PM 60.8 °F 46.4 °F 59% 30.17 in 10.0 mi Variable 5.8 mph - N/A   Clear
7:35 PM 60.8 °F 46.4 °F 59% 30.17 in 10.0 mi WNW 5.8 mph - N/A   Clear
7:55 PM 60.8 °F 46.4 °F 59% 30.18 in 10.0 mi Variable 3.5 mph - N/A   Clear
8:15 PM 60.8 °F 44.6 °F 55% 30.18 in 10.0 mi Calm Calm - N/A   Clear
8:35 PM 60.8 °F 42.8 °F 52% 30.19 in 10.0 mi Variable 4.6 mph - N/A   Clear
8:55 PM 60.8 °F 42.8 °F 52% 30.19 in 10.0 mi Variable 4.6 mph - N/A   Clear
9:15 PM 60.8 °F 42.8 °F 52% 30.19 in 10.0 mi WNW 6.9 mph - N/A   Clear
9:35 PM 60.8 °F 42.8 °F 52% 30.19 in 10.0 mi Variable 5.8 mph - N/A   Clear
9:55 PM 60.8 °F 42.8 °F 52% 30.19 in 10.0 mi Variable 4.6 mph - N/A   Clear
10:15 PM 60.8 °F 42.8 °F 52% 30.19 in 10.0 mi Variable 4.6 mph - N/A   Clear
10:35 PM 60.8 °F 42.8 °F 52% 30.18 in 10.0 mi WNW 5.8 mph - N/A   Clear
10:55 PM 60.8 °F 41.0 °F 48% 30.17 in 10.0 mi NW 5.8 mph - N/A   Clear
11:15 PM 60.8 °F 41.0 °F 48% 30.17 in 10.0 mi Variable 5.8 mph - N/A   Clear
11:35 PM 60.8 °F 41.0 °F 48% 30.16 in 10.0 mi Variable 5.8 mph - N/A   Clear
11:55 PM 60.8 °F 41.0 °F 48% 30.15 in 10.0 mi WNW 6.9 mph - N/A   Clear